Time;durP1;ratioP1;P1;durP2;ratioP2;P2;SDS_P1;SDS_P2;PMS_P1;PMS_P2;Temp;Humidity;BMP_temperature;BMP_pressure;BME280_temperature;BME280_humidity;BME280_pressure;Samples;Min_cycle;Max_cycle;Signal;HPM_P1;HPM_P2
2022/08/01 00:01:45;;;;;;;2.90;2.50;;;;;;;;;;10458419;28;20025;-75
2022/08/01 00:06:45;;;;;;;3.23;2.93;;;;;;;;;;10457953;28;20020;-74
2022/08/01 00:11:45;;;;;;;3.95;2.63;;;;;;;;;;10473041;28;20581;-74
2022/08/01 00:16:46;;;;;;;2.65;2.15;;;;;;;;;;10489706;28;20457;-74
2022/08/01 00:21:46;;;;;;;6.10;1.92;;;;;;;;;;10459460;28;20025;-75
2022/08/01 00:26:46;;;;;;;4.47;2.10;;;;;;;;;;10457641;28;20559;-75
2022/08/01 00:31:46;;;;;;;4.57;1.80;;;;;;;;;;10456133;28;20486;-75
2022/08/01 00:36:47;;;;;;;5.03;1.58;;;;;;;;;;10475701;28;20545;-75
2022/08/01 00:41:47;;;;;;;7.60;4.20;;;;;;;;;;10475188;28;20092;-75
2022/08/01 00:46:47;;;;;;;5.63;4.28;;;;;;;;;;10455233;28;20020;-75
2022/08/01 00:51:48;;;;;;;6.32;4.85;;;;;;;;;;10455334;28;20399;-75
2022/08/01 00:56:48;;;;;;;5.72;4.80;;;;;;;;;;10454996;28;20028;-75
2022/08/01 01:01:49;;;;;;;6.67;5.10;;;;;;;;;;10471700;28;20109;-75
2022/08/01 01:06:55;;;;;;;6.70;5.28;;;;;;;;;;10455475;28;20544;-75
2022/08/01 01:12:06;;;;;;;8.77;7.38;;;;;;;;;;10457890;28;20040;-75
2022/08/01 01:17:07;;;;;;;10.85;7.82;;;;;;;;;;10488534;28;20017;-74
2022/08/01 01:22:20;;;;;;;11.25;7.30;;;;;;;;;;10477490;28;20398;-75
2022/08/01 01:27:32;;;;;;;17.90;10.18;;;;;;;;;;10471690;28;20058;-74
2022/08/01 01:32:35;;;;;;;9.40;7.22;;;;;;;;;;10476707;28;20056;-74
2022/08/01 01:37:37;;;;;;;9.60;7.35;;;;;;;;;;10471056;28;20104;-76
2022/08/01 01:42:38;;;;;;;8.57;7.15;;;;;;;;;;10474143;28;20028;-75
2022/08/01 01:47:38;;;;;;;13.63;7.50;;;;;;;;;;10473506;28;20024;-75
2022/08/01 01:52:39;;;;;;;9.18;6.88;;;;;;;;;;10479953;28;20016;-81
2022/08/01 01:57:40;;;;;;;8.55;6.80;;;;;;;;;;10468223;28;20075;-75
2022/08/01 02:02:41;;;;;;;8.60;6.30;;;;;;;;;;10483061;28;20077;-76
2022/08/01 02:07:43;;;;;;;10.40;6.75;;;;;;;;;;10452582;28;20045;-75
2022/08/01 02:12:45;;;;;;;9.73;7.18;;;;;;;;;;10470761;28;20037;-74
2022/08/01 02:17:48;;;;;;;12.13;7.00;;;;;;;;;;10452611;28;20071;-74
2022/08/01 02:22:53;;;;;;;12.52;7.00;;;;;;;;;;10469447;28;20067;-74
2022/08/01 02:27:56;;;;;;;7.32;6.35;;;;;;;;;;10473966;28;20021;-73
2022/08/01 02:33:02;;;;;;;9.90;5.97;;;;;;;;;;10452417;28;20490;-74
2022/08/01 02:38:06;;;;;;;7.78;5.25;;;;;;;;;;10468881;28;20115;-74
2022/08/01 02:43:07;;;;;;;8.93;6.00;;;;;;;;;;10468372;28;20486;-74
2022/08/01 02:48:09;;;;;;;12.18;6.25;;;;;;;;;;10476616;28;20040;-75
2022/08/01 02:53:11;;;;;;;8.63;6.28;;;;;;;;;;10451437;28;20112;-75
2022/08/01 02:58:12;;;;;;;10.57;6.43;;;;;;;;;;10450592;28;20044;-74
2022/08/01 03:03:13;;;;;;;10.40;6.35;;;;;;;;;;10450569;28;20040;-76
2022/08/01 03:08:15;;;;;;;10.65;6.78;;;;;;;;;;10465905;28;20052;-75
2022/08/01 03:13:15;;;;;;;11.30;6.55;;;;;;;;;;10451281;28;20036;-75
2022/08/01 03:18:17;;;;;;;11.48;5.10;;;;;;;;;;10450268;28;20130;-75
2022/08/01 03:23:18;;;;;;;6.55;5.00;;;;;;;;;;10458182;28;20024;-74
2022/08/01 03:28:19;;;;;;;6.00;5.15;;;;;;;;;;10455057;28;20021;-75
2022/08/01 03:33:20;;;;;;;16.17;5.50;;;;;;;;;;10459372;28;20025;-74
2022/08/01 03:38:23;;;;;;;14.60;4.97;;;;;;;;;;10482289;28;20025;-75
2022/08/01 03:43:29;;;;;;;8.50;4.80;;;;;;;;;;10458032;28;20106;-76
2022/08/01 03:48:32;;;;;;;8.13;5.85;;;;;;;;;;10453223;28;20418;-75
2022/08/01 03:53:33;;;;;;;9.15;6.05;;;;;;;;;;10457506;28;20013;-75
2022/08/01 03:58:33;;;;;;;6.55;4.97;;;;;;;;;;10474133;28;20102;-75
2022/08/01 04:03:34;;;;;;;7.40;3.95;;;;;;;;;;10485558;28;20055;-75
2022/08/01 04:08:38;;;;;;;5.20;3.83;;;;;;;;;;10456891;28;20057;-75
2022/08/01 04:13:38;;;;;;;4.38;3.35;;;;;;;;;;10476371;28;20034;-76
2022/08/01 04:18:38;;;;;;;6.43;3.80;;;;;;;;;;10476873;28;20108;-75
2022/08/01 04:23:40;;;;;;;4.57;3.80;;;;;;;;;;10456002;28;20403;-75
2022/08/01 04:28:42;;;;;;;6.03;3.40;;;;;;;;;;10457397;28;20120;-76
2022/08/01 04:33:45;;;;;;;5.07;3.78;;;;;;;;;;10486058;28;20561;-75
2022/08/01 04:38:48;;;;;;;8.60;4.32;;;;;;;;;;10456176;28;20094;-75
2022/08/01 04:43:48;;;;;;;7.20;4.30;;;;;;;;;;10475791;28;20495;-77
2022/08/01 04:48:49;;;;;;;8.13;5.28;;;;;;;;;;10456827;28;20045;-74
2022/08/01 04:53:52;;;;;;;5.55;4.10;;;;;;;;;;10455294;28;20032;-76
2022/08/01 04:59:39;;;;;;;10.18;4.13;;;;;;;;;;10483272;28;20108;-75
2022/08/01 05:04:13;;;;;;;7.47;3.92;;;;;;;;;;10456200;28;20040;-76
2022/08/01 05:09:13;;;;;;;7.38;4.10;;;;;;;;;;10469522;28;20088;-76
2022/08/01 05:14:13;;;;;;;8.23;3.67;;;;;;;;;;10472610;28;20017;-73
2022/08/01 05:19:13;;;;;;;8.65;4.85;;;;;;;;;;10487839;28;20455;-75
2022/08/01 05:24:14;;;;;;;10.75;3.38;;;;;;;;;;10454741;28;20071;-75
2022/08/01 05:29:14;;;;;;;8.23;3.30;;;;;;;;;;10453590;28;20089;-75
2022/08/01 05:34:15;;;;;;;6.28;3.90;;;;;;;;;;10443634;28;20028;-75
2022/08/01 05:39:15;;;;;;;8.48;3.50;;;;;;;;;;10471736;28;20048;-75
2022/08/01 05:44:15;;;;;;;6.65;3.17;;;;;;;;;;10475084;28;20406;-75
2022/08/01 05:49:15;;;;;;;10.07;2.70;;;;;;;;;;10484315;28;20056;-75
2022/08/01 05:54:16;;;;;;;4.05;2.53;;;;;;;;;;10466746;28;20024;-74
2022/08/01 05:59:16;;;;;;;4.67;3.07;;;;;;;;;;10476839;28;20044;-75
2022/08/01 06:04:16;;;;;;;6.55;2.40;;;;;;;;;;10458760;28;20035;-74
2022/08/01 06:09:16;;;;;;;8.07;2.30;;;;;;;;;;10479589;28;20472;-74
2022/08/01 06:14:17;;;;;;;6.93;2.00;;;;;;;;;;10456705;28;20024;-75
2022/08/01 06:19:17;;;;;;;3.03;1.63;;;;;;;;;;10435148;28;20059;-74
2022/08/01 06:24:17;;;;;;;3.08;1.40;;;;;;;;;;10463922;28;20025;-75
2022/08/01 06:29:17;;;;;;;3.50;1.50;;;;;;;;;;10442501;28;20098;-74
2022/08/01 06:34:18;;;;;;;8.15;1.45;;;;;;;;;;10452404;28;20021;-74
2022/08/01 06:39:18;;;;;;;4.63;1.48;;;;;;;;;;10475038;28;20104;-74
2022/08/01 06:44:18;;;;;;;5.53;1.80;;;;;;;;;;10468465;28;20074;-74
2022/08/01 06:49:18;;;;;;;4.45;1.52;;;;;;;;;;10466185;28;20031;-73
2022/08/01 06:54:19;;;;;;;2.92;1.63;;;;;;;;;;10469913;28;20063;-74
2022/08/01 06:59:19;;;;;;;1.60;1.20;;;;;;;;;;10468814;28;20021;-76
2022/08/01 07:04:19;;;;;;;7.07;1.80;;;;;;;;;;10467973;28;20021;-74
2022/08/01 07:09:19;;;;;;;5.53;1.50;;;;;;;;;;10471511;28;20131;-73
2022/08/01 07:14:20;;;;;;;4.93;1.23;;;;;;;;;;10468150;28;20022;-73
2022/08/01 07:19:20;;;;;;;2.45;1.40;;;;;;;;;;10451525;28;20490;-73
2022/08/01 07:24:20;;;;;;;6.68;1.65;;;;;;;;;;10451198;28;20606;-75
2022/08/01 07:29:22;;;;;;;1.52;1.35;;;;;;;;;;10471060;28;20029;-75
2022/08/01 07:34:22;;;;;;;7.47;1.73;;;;;;;;;;10467879;28;20083;-73
2022/08/01 07:39:23;;;;;;;6.18;1.25;;;;;;;;;;10450854;28;20082;-73
2022/08/01 07:44:23;;;;;;;3.33;1.20;;;;;;;;;;10469913;28;20479;-73
2022/08/01 07:49:23;;;;;;;6.45;1.17;;;;;;;;;;10451765;28;20021;-82
2022/08/01 07:54:25;;;;;;;1.90;1.05;;;;;;;;;;10481002;28;20100;-74
2022/08/01 07:59:25;;;;;;;3.88;1.60;;;;;;;;;;10466778;28;20451;-74
2022/08/01 08:04:26;;;;;;;2.78;1.40;;;;;;;;;;10460342;28;20078;-74
2022/08/01 08:09:26;;;;;;;2.55;1.27;;;;;;;;;;10470750;28;20056;-74
2022/08/01 08:14:26;;;;;;;5.90;1.35;;;;;;;;;;10450531;28;20021;-73
2022/08/01 08:19:26;;;;;;;3.25;1.33;;;;;;;;;;10457154;28;20024;-74
2022/08/01 08:24:27;;;;;;;4.30;1.20;;;;;;;;;;10487965;28;20555;-75
2022/08/01 08:29:29;;;;;;;2.40;1.20;;;;;;;;;;10457056;28;20111;-73
2022/08/01 08:34:30;;;;;;;1.63;1.00;;;;;;;;;;10476139;28;20338;-73
2022/08/01 08:39:31;;;;;;;6.93;1.50;;;;;;;;;;10480081;28;20117;-73
2022/08/01 08:44:31;;;;;;;4.30;1.40;;;;;;;;;;10466232;28;20078;-74
2022/08/01 08:49:32;;;;;;;3.40;1.37;;;;;;;;;;10472013;28;20024;-74
2022/08/01 08:54:32;;;;;;;2.17;1.13;;;;;;;;;;10480838;28;20207;-73
2022/08/01 08:59:33;;;;;;;5.32;1.50;;;;;;;;;;10472650;28;20267;-73
2022/08/01 09:04:33;;;;;;;4.05;1.20;;;;;;;;;;10475765;28;20171;-74
2022/08/01 09:09:33;;;;;;;1.87;1.07;;;;;;;;;;10478102;28;20052;-74
2022/08/01 09:14:43;;;;;;;4.87;1.00;;;;;;;;;;10454432;28;20013;-74
2022/08/01 09:19:48;;;;;;;5.30;1.38;;;;;;;;;;10471716;28;20494;-74
2022/08/01 09:24:57;;;;;;;5.28;1.35;;;;;;;;;;10472594;28;20036;-73
2022/08/01 09:30:24;;;;;;;6.70;1.60;;;;;;;;;;10454440;28;20021;-74
2022/08/01 09:35:24;;;;;;;;;;;;;;;;;;10454076;28;20085;-74
2022/08/01 09:40:24;;;;;;;2.40;1.10;;;;;;;;;;10501891;28;19931;-74
2022/08/01 09:45:31;;;;;;;5.40;1.20;;;;;;;;;;10443114;28;20150;-73
2022/08/01 09:50:38;;;;;;;4.22;0.80;;;;;;;;;;10453734;28;20055;-74
2022/08/01 09:55:39;;;;;;;2.15;0.65;;;;;;;;;;10478591;28;20020;-75
2022/08/01 10:00:40;;;;;;;1.65;1.00;;;;;;;;;;10452210;28;20455;-74
2022/08/01 10:05:42;;;;;;;1.92;1.10;;;;;;;;;;10489724;28;20040;-74
2022/08/01 10:11:02;;;;;;;2.42;1.00;;;;;;;;;;10483878;28;20053;-74
2022/08/01 10:16:05;;;;;;;1.33;0.82;;;;;;;;;;10451383;28;20082;-73
2022/08/01 10:21:05;;;;;;;3.08;1.27;;;;;;;;;;10451560;28;20435;-73
2022/08/01 10:26:06;;;;;;;2.80;1.40;;;;;;;;;;10434845;28;20029;-73
2022/08/01 10:31:07;;;;;;;7.03;1.27;;;;;;;;;;10456061;28;20020;-73
2022/08/01 10:36:08;;;;;;;1.73;0.80;;;;;;;;;;10469243;28;20013;-74
2022/08/01 10:41:09;;;;;;;1.48;0.80;;;;;;;;;;10471307;28;20028;-73
2022/08/01 10:46:09;;;;;;;1.13;0.90;;;;;;;;;;10475129;28;20032;-73
2022/08/01 10:51:10;;;;;;;3.92;1.20;;;;;;;;;;10451972;28;20107;-73
2022/08/01 10:56:10;;;;;;;1.67;1.00;;;;;;;;;;10468586;28;20043;-73
2022/08/01 11:01:26;;;;;;;5.63;1.00;;;;;;;;;;10475298;28;20017;-74
2022/08/01 11:06:33;;;;;;;6.47;1.20;;;;;;;;;;10451230;28;20506;-73
2022/08/01 11:11:53;;;;;;;1.13;0.90;;;;;;;;;;10471845;28;20052;-75
2022/08/01 11:16:53;;;;;;;2.25;1.25;;;;;;;;;;10467507;28;20459;-73
2022/08/01 11:21:56;;;;;;;5.00;1.67;;;;;;;;;;10449977;28;20017;-73
2022/08/01 11:27:15;;;;;;;3.40;1.20;;;;;;;;;;10449689;28;20020;-74
2022/08/01 11:32:39;;;;;;;2.58;1.23;;;;;;;;;;10449257;28;20100;-75
2022/08/01 11:37:39;;;;;;;4.63;1.55;;;;;;;;;;10472076;28;20027;-74
2022/08/01 11:42:39;;;;;;;2.80;1.75;;;;;;;;;;10455794;28;20570;-73
2022/08/01 11:47:43;;;;;;;2.20;1.63;;;;;;;;;;10454449;28;20100;-74
2022/08/01 11:52:45;;;;;;;2.22;1.67;;;;;;;;;;10455863;28;20021;-75
2022/08/01 11:57:45;;;;;;;1.60;1.50;;;;;;;;;;10456987;28;20036;-74
2022/08/01 12:02:46;;;;;;;2.00;1.57;;;;;;;;;;10440221;28;20074;-75
2022/08/01 12:07:49;;;;;;;3.65;2.10;;;;;;;;;;10487663;28;20063;-75
2022/08/01 12:12:51;;;;;;;1.60;1.50;;;;;;;;;;10474654;28;20043;-75
2022/08/01 12:18:05;;;;;;;2.08;1.58;;;;;;;;;;10489298;28;20504;-74
2022/08/01 12:23:07;;;;;;;5.65;4.32;;;;;;;;;;10472896;28;20027;-74
2022/08/01 12:28:08;;;;;;;6.60;2.88;;;;;;;;;;10473686;28;20108;-74
2022/08/01 12:33:10;;;;;;;6.03;2.47;;;;;;;;;;10455804;28;20025;-75
2022/08/01 12:38:15;;;;;;;3.85;2.83;;;;;;;;;;10456015;28;20072;-74
2022/08/01 12:43:16;;;;;;;6.72;2.83;;;;;;;;;;10478511;28;20017;-75
2022/08/01 12:48:17;;;;;;;4.10;2.60;;;;;;;;;;10472473;28;20143;-74
2022/08/01 12:53:18;;;;;;;3.83;2.35;;;;;;;;;;10472515;28;20108;-73
2022/08/01 12:58:19;;;;;;;3.03;2.10;;;;;;;;;;10456050;28;20112;-74
2022/08/01 13:03:20;;;;;;;2.55;1.90;;;;;;;;;;10473741;28;20107;-73
2022/08/01 13:08:30;;;;;;;3.67;1.85;;;;;;;;;;10478791;28;20049;-73
2022/08/01 13:13:40;;;;;;;4.78;2.83;;;;;;;;;;10464039;28;20058;-74
2022/08/01 13:18:40;;;;;;;4.28;2.10;;;;;;;;;;10475552;28;20461;-74
2022/08/01 13:23:41;;;;;;;1.98;1.83;;;;;;;;;;10478739;28;20021;-74
2022/08/01 13:28:42;;;;;;;5.75;2.10;;;;;;;;;;10436864;28;20032;-75
2022/08/01 13:33:43;;;;;;;3.38;2.60;;;;;;;;;;10477935;28;20043;-74
2022/08/01 13:44:03;;;;;;;2.78;1.98;;;;;;;;;;10454208;28;20021;-74
2022/08/01 13:49:03;;;;;;;4.90;2.17;;;;;;;;;;10475637;28;20017;-74
2022/08/01 13:54:04;;;;;;;4.63;2.23;;;;;;;;;;10456334;28;20470;-75
2022/08/01 13:59:06;;;;;;;3.47;2.22;;;;;;;;;;10492765;28;20347;-73
2022/08/01 14:04:06;;;;;;;5.35;2.22;;;;;;;;;;10480945;28;20040;-74
2022/08/01 14:09:07;;;;;;;3.53;2.00;;;;;;;;;;10469337;28;20107;-74
2022/08/01 14:14:07;;;;;;;2.77;2.17;;;;;;;;;;10459354;28;20258;-74
2022/08/01 14:19:07;;;;;;;2.30;2.10;;;;;;;;;;10465180;28;20070;-75
2022/08/01 14:24:08;;;;;;;3.60;2.65;;;;;;;;;;10476342;28;20433;-74
2022/08/01 14:29:08;;;;;;;3.78;2.03;;;;;;;;;;10470287;28;20074;-76
2022/08/01 14:34:08;;;;;;;5.30;1.70;;;;;;;;;;10468079;28;20465;-74
2022/08/01 14:39:09;;;;;;;3.77;2.20;;;;;;;;;;10450242;28;20021;-74
2022/08/01 14:44:09;;;;;;;4.40;2.20;;;;;;;;;;10451554;28;20027;-74
2022/08/01 14:49:09;;;;;;;1.60;1.40;;;;;;;;;;10450501;28;20025;-74
2022/08/01 14:54:10;;;;;;;2.30;1.87;;;;;;;;;;10465888;28;20479;-74
2022/08/01 14:59:10;;;;;;;4.35;2.40;;;;;;;;;;10451323;28;20044;-75
2022/08/01 15:04:10;;;;;;;1.92;1.83;;;;;;;;;;10449837;28;20054;-75
2022/08/01 15:09:10;;;;;;;2.60;1.90;;;;;;;;;;10488702;28;20041;-74
2022/08/01 15:19:30;;;;;;;2.50;1.83;;;;;;;;;;10465631;28;20040;-76
2022/08/01 15:24:30;;;;;;;2.20;1.90;;;;;;;;;;10476670;28;20028;-73
2022/08/01 15:29:31;;;;;;;2.77;2.37;;;;;;;;;;10457576;28;20021;-75
2022/08/01 15:34:32;;;;;;;4.80;2.00;;;;;;;;;;10478266;28;20263;-74
2022/08/01 15:39:33;;;;;;;2.88;2.00;;;;;;;;;;10457529;28;20025;-75
2022/08/01 15:44:34;;;;;;;4.53;2.10;;;;;;;;;;10474956;28;20479;-75
2022/08/01 15:49:36;;;;;;;4.80;1.63;;;;;;;;;;10474755;28;20017;-74
2022/08/01 15:54:37;;;;;;;1.60;1.50;;;;;;;;;;10457823;28;20075;-76
2022/08/01 15:59:37;;;;;;;9.18;2.00;;;;;;;;;;10456865;28;20047;-74
2022/08/01 16:04:37;;;;;;;7.82;1.88;;;;;;;;;;10457605;28;20025;-75
2022/08/01 16:09:38;;;;;;;4.40;2.17;;;;;;;;;;10478012;28;20049;-74
2022/08/01 16:14:38;;;;;;;4.00;2.03;;;;;;;;;;10457400;28;20013;-75
2022/08/01 16:19:39;;;;;;;1.88;1.50;;;;;;;;;;10457520;28;20035;-75
2022/08/01 16:24:39;;;;;;;7.55;2.20;;;;;;;;;;10476888;28;20017;-74
2022/08/01 16:29:40;;;;;;;4.53;2.17;;;;;;;;;;10476873;28;20021;-74
2022/08/01 16:34:40;;;;;;;3.17;2.22;;;;;;;;;;10473865;28;20019;-74
2022/08/01 16:39:40;;;;;;;3.58;2.75;;;;;;;;;;10471910;28;20395;-74
2022/08/01 16:44:41;;;;;;;1.75;1.50;;;;;;;;;;10486638;28;20554;-74
2022/08/01 16:49:42;;;;;;;3.05;1.90;;;;;;;;;;10476369;28;20021;-74
2022/08/01 16:54:42;;;;;;;4.18;1.83;;;;;;;;;;10455866;28;20104;-74
2022/08/01 16:59:42;;;;;;;2.65;1.77;;;;;;;;;;10454468;28;20013;-75
2022/08/01 17:04:43;;;;;;;2.47;1.60;;;;;;;;;;10472257;28;20021;-74
2022/08/01 17:09:43;;;;;;;4.38;1.63;;;;;;;;;;10470672;28;20063;-76
2022/08/01 17:14:43;;;;;;;2.78;1.40;;;;;;;;;;10480471;28;20013;-76
2022/08/01 17:19:43;;;;;;;7.35;1.77;;;;;;;;;;10466211;28;20041;-74
2022/08/01 17:24:44;;;;;;;4.17;1.80;;;;;;;;;;10455139;28;20116;-75
2022/08/01 17:29:44;;;;;;;2.65;1.52;;;;;;;;;;10453670;28;20021;-74
2022/08/01 17:34:45;;;;;;;2.53;1.20;;;;;;;;;;10441758;28;20037;-75
2022/08/01 17:39:45;;;;;;;3.07;1.70;;;;;;;;;;10475813;28;20025;-74
2022/08/01 17:44:45;;;;;;;2.88;1.50;;;;;;;;;;10453130;28;20033;-74
2022/08/01 17:49:45;;;;;;;1.33;1.10;;;;;;;;;;10453441;28;20028;-75
2022/08/01 17:54:46;;;;;;;3.58;1.77;;;;;;;;;;10468254;28;20049;-74
2022/08/01 17:59:46;;;;;;;3.92;1.50;;;;;;;;;;10452379;28;20037;-74
2022/08/01 18:04:46;;;;;;;3.10;1.45;;;;;;;;;;10481241;28;20421;-73
2022/08/01 18:09:46;;;;;;;8.57;3.08;;;;;;;;;;10451700;28;20430;-75
2022/08/01 18:14:48;;;;;;;2.45;1.83;;;;;;;;;;10456208;28;20045;-74
2022/08/01 18:19:48;;;;;;;2.33;1.98;;;;;;;;;;10451958;28;20021;-74
2022/08/01 18:24:49;;;;;;;4.85;1.90;;;;;;;;;;10469048;28;20457;-75
2022/08/01 18:29:49;;;;;;;2.28;1.40;;;;;;;;;;10452658;28;20112;-75
2022/08/01 18:34:49;;;;;;;2.10;1.70;;;;;;;;;;10468843;28;20525;-75
2022/08/01 18:39:49;;;;;;;8.93;2.08;;;;;;;;;;10469276;28;20103;-75
2022/08/01 18:44:50;;;;;;;5.35;3.10;;;;;;;;;;10471731;28;20021;-74
2022/08/01 18:49:50;;;;;;;9.13;2.20;;;;;;;;;;10471296;28;20033;-74
2022/08/01 18:54:50;;;;;;;3.55;1.73;;;;;;;;;;10475008;28;20017;-73
2022/08/01 18:59:50;;;;;;;3.22;2.15;;;;;;;;;;10465604;28;20029;-75
2022/08/01 19:04:52;;;;;;;4.95;2.10;;;;;;;;;;10450021;28;20501;-74
2022/08/01 19:09:53;;;;;;;6.45;2.22;;;;;;;;;;10466817;28;20072;-73
2022/08/01 19:14:53;;;;;;;6.87;2.27;;;;;;;;;;10442308;28;20177;-74
2022/08/01 19:19:54;;;;;;;4.70;2.10;;;;;;;;;;10445048;28;20483;-74
2022/08/01 19:24:54;;;;;;;4.30;2.17;;;;;;;;;;10449686;28;20367;-74
2022/08/01 19:29:55;;;;;;;2.33;2.13;;;;;;;;;;10449239;28;20025;-74
2022/08/01 19:35:03;;;;;;;5.22;2.20;;;;;;;;;;10469708;28;20020;-73
2022/08/01 19:40:03;;;;;;;;;;;;;;;;;;10475193;28;20029;-74
2022/08/01 19:45:04;;;;;;;4.82;2.20;;;;;;;;;;10462746;28;19909;-74
2022/08/01 19:50:06;;;;;;;3.80;2.33;;;;;;;;;;10450513;28;20021;-74
2022/08/01 19:55:07;;;;;;;3.13;2.22;;;;;;;;;;10468158;28;20500;-74
2022/08/01 20:00:08;;;;;;;3.38;2.20;;;;;;;;;;10470684;28;20112;-74
2022/08/01 20:05:08;;;;;;;2.63;2.00;;;;;;;;;;10450910;28;20023;-74
2022/08/01 20:10:09;;;;;;;3.03;2.20;;;;;;;;;;10469405;28;20049;-73
2022/08/01 20:15:09;;;;;;;3.65;2.17;;;;;;;;;;10486342;28;20036;-74
2022/08/01 20:20:10;;;;;;;3.60;1.83;;;;;;;;;;10474604;28;20020;-74
2022/08/01 20:25:11;;;;;;;4.53;1.80;;;;;;;;;;10476051;28;20479;-74
2022/08/01 20:30:11;;;;;;;4.32;1.90;;;;;;;;;;10448199;28;20029;-76
2022/08/01 20:35:11;;;;;;;2.60;1.80;;;;;;;;;;10456054;28;20037;-74
2022/08/01 20:40:12;;;;;;;6.50;2.47;;;;;;;;;;10455845;28;20344;-74
2022/08/01 20:45:14;;;;;;;3.55;2.30;;;;;;;;;;10455595;28;20116;-74
2022/08/01 20:55:46;;;;;;;5.75;2.25;;;;;;;;;;10457481;28;20143;-73
2022/08/01 21:00:48;;;;;;;2.53;1.73;;;;;;;;;;10476146;28;20561;-74
2022/08/01 21:05:55;;;;;;;5.20;3.22;;;;;;;;;;10456219;28;20024;-75
2022/08/01 21:10:56;;;;;;;2.70;1.92;;;;;;;;;;10476104;28;20068;-74
2022/08/01 21:16:00;;;;;;;2.95;1.63;;;;;;;;;;10456422;28;20482;-74
2022/08/01 21:21:01;;;;;;;2.97;2.10;;;;;;;;;;10454411;28;20377;-74
2022/08/01 21:26:02;;;;;;;3.20;1.70;;;;;;;;;;10453653;28;20483;-74
2022/08/01 21:31:02;;;;;;;1.55;1.40;;;;;;;;;;10480643;28;20024;-74
2022/08/01 21:36:03;;;;;;;2.08;1.30;;;;;;;;;;10460359;28;20115;-74
2022/08/01 21:41:05;;;;;;;2.90;1.90;;;;;;;;;;10472310;28;20033;-74
2022/08/01 21:46:05;;;;;;;4.10;1.60;;;;;;;;;;10442450;28;20415;-74
2022/08/01 21:51:22;;;;;;;3.25;1.80;;;;;;;;;;10476452;28;20036;-75
2022/08/01 21:56:25;;;;;;;4.65;1.60;;;;;;;;;;10474025;28;20025;-74
2022/08/01 22:01:44;;;;;;;2.65;1.63;;;;;;;;;;10452692;28;20526;-74
2022/08/01 22:06:47;;;;;;;3.65;1.55;;;;;;;;;;10470078;28;20025;-73
2022/08/01 22:11:47;;;;;;;4.03;1.55;;;;;;;;;;10481616;28;20057;-74
2022/08/01 22:16:48;;;;;;;3.40;1.50;;;;;;;;;;10454386;28;20518;-75
2022/08/01 22:21:48;;;;;;;2.95;1.40;;;;;;;;;;10452131;28;20036;-74
2022/08/01 22:26:51;;;;;;;7.65;2.80;;;;;;;;;;10473968;28;20021;-73
2022/08/01 22:31:55;;;;;;;4.03;1.50;;;;;;;;;;10452616;28;20040;-73
2022/08/01 22:36:55;;;;;;;3.17;2.13;;;;;;;;;;10469081;28;20062;-73
2022/08/01 22:41:58;;;;;;;3.50;1.60;;;;;;;;;;10472597;28;20025;-75
2022/08/01 22:47:10;;;;;;;1.50;1.30;;;;;;;;;;10470040;28;20025;-74
2022/08/01 22:52:11;;;;;;;5.97;1.58;;;;;;;;;;10450844;28;20016;-75
2022/08/01 22:57:18;;;;;;;3.05;1.63;;;;;;;;;;10469518;28;20021;-73
2022/08/01 23:02:19;;;;;;;2.57;1.80;;;;;;;;;;10484209;28;20036;-74
2022/08/01 23:07:22;;;;;;;3.00;1.58;;;;;;;;;;10451459;28;20112;-73
2022/08/01 23:12:24;;;;;;;3.28;2.08;;;;;;;;;;10481011;28;20032;-74
2022/08/01 23:17:25;;;;;;;2.75;1.90;;;;;;;;;;10451937;28;20449;-73
2022/08/01 23:22:26;;;;;;;3.17;2.03;;;;;;;;;;10470497;28;20020;-74
2022/08/01 23:27:27;;;;;;;4.93;2.25;;;;;;;;;;10467766;28;20028;-74
2022/08/01 23:32:27;;;;;;;4.73;2.10;;;;;;;;;;10479260;28;20025;-73
2022/08/01 23:37:27;;;;;;;2.65;2.20;;;;;;;;;;10450192;28;20025;-76
2022/08/01 23:42:27;;;;;;;4.57;2.13;;;;;;;;;;10471325;28;20059;-74
2022/08/01 23:47:28;;;;;;;3.83;2.03;;;;;;;;;;10455536;28;20036;-73
2022/08/01 23:52:28;;;;;;;2.50;1.77;;;;;;;;;;10475910;28;20061;-74
2022/08/01 23:57:28;;;;;;;4.75;1.70;;;;;;;;;;10458891;28;20451;-74
